Time;durP1;ratioP1;P1;durP2;ratioP2;P2;SDS_P1;SDS_P2;PMS_P1;PMS_P2;Temp;Humidity;BMP_temperature;BMP_pressure;BME280_temperature;BME280_humidity;BME280_pressure;Samples;Min_cycle;Max_cycle;Signal;HPM_P1;HPM_P2
2023/04/10 00:01:21;;;;;;;9.57;7.33;;;;;;;;;;5069786;28;20205;-77
2023/04/10 00:03:47;;;;;;;9.73;8.20;;;;;;;;;;5069509;28;20184;-77
2023/04/10 00:06:12;;;;;;;9.70;7.90;;;;;;;;;;5069578;28;20197;-77
2023/04/10 00:08:37;;;;;;;9.60;7.40;;;;;;;;;;5068234;28;20210;-77
2023/04/10 00:11:02;;;;;;;10.43;8.27;;;;;;;;;;5071863;28;20195;-77
2023/04/10 00:13:28;;;;;;;8.97;7.93;;;;;;;;;;5068256;28;20181;-77
2023/04/10 00:15:53;;;;;;;9.03;7.40;;;;;;;;;;5071242;28;20216;-77
2023/04/10 00:18:19;;;;;;;10.47;7.93;;;;;;;;;;5070216;28;20272;-77
2023/04/10 00:20:44;;;;;;;10.97;7.93;;;;;;;;;;5070346;28;20191;-77
2023/04/10 00:23:09;;;;;;;9.17;6.97;;;;;;;;;;5069237;28;20174;-77
2023/04/10 00:25:34;;;;;;;10.20;8.00;;;;;;;;;;5070017;28;20169;-77
2023/04/10 00:27:59;;;;;;;11.33;8.07;;;;;;;;;;5067726;28;20184;-77
2023/04/10 00:30:25;;;;;;;9.63;7.33;;;;;;;;;;5067410;28;20243;-77
2023/04/10 00:32:50;;;;;;;9.93;7.97;;;;;;;;;;5069016;28;20207;-77
2023/04/10 00:35:15;;;;;;;9.80;7.63;;;;;;;;;;5069680;28;20176;-77
2023/04/10 00:37:41;;;;;;;11.20;7.47;;;;;;;;;;5069078;28;20195;-77
2023/04/10 00:40:06;;;;;;;9.87;7.97;;;;;;;;;;5070602;28;20236;-77
2023/04/10 00:42:32;;;;;;;11.43;7.90;;;;;;;;;;5067257;28;20210;-77
2023/04/10 00:44:57;;;;;;;8.67;7.57;;;;;;;;;;5065759;28;20179;-77
2023/04/10 00:47:23;;;;;;;9.40;7.17;;;;;;;;;;5067789;28;20193;-77
2023/04/10 00:49:48;;;;;;;10.70;7.20;;;;;;;;;;5086057;28;20185;-77
2023/04/10 00:52:13;;;;;;;9.60;7.53;;;;;;;;;;5069264;28;20250;-77
2023/04/10 00:54:39;;;;;;;9.00;7.37;;;;;;;;;;5068636;28;20232;-77
2023/04/10 00:57:04;;;;;;;9.60;7.20;;;;;;;;;;5067853;28;20181;-77
2023/04/10 00:59:30;;;;;;;10.93;7.33;;;;;;;;;;5063336;28;20192;-77
2023/04/10 01:01:55;;;;;;;8.97;7.40;;;;;;;;;;5069096;28;20175;-77
2023/04/10 01:04:22;;;;;;;8.00;6.97;;;;;;;;;;5067093;28;20192;-77
2023/04/10 01:06:53;;;;;;;9.50;7.03;;;;;;;;;;5069229;28;20355;-77
2023/04/10 01:09:44;;;;;;;8.90;7.30;;;;;;;;;;5068432;28;20191;-77
2023/04/10 01:12:29;;;;;;;9.67;7.60;;;;;;;;;;5063353;28;20187;-77
2023/04/10 01:15:03;;;;;;;8.67;7.00;;;;;;;;;;5066922;28;20225;-77
2023/04/10 01:17:28;;;;;;;9.13;6.87;;;;;;;;;;5072195;28;20164;-77
2023/04/10 01:20:22;;;;;;;9.03;7.10;;;;;;;;;;5071149;28;20253;-77
2023/04/10 01:23:06;;;;;;;8.67;6.97;;;;;;;;;;5057199;28;20185;-77
2023/04/10 01:25:35;;;;;;;9.97;7.23;;;;;;;;;;5071849;28;20180;-77
2023/04/10 01:28:12;;;;;;;9.77;6.87;;;;;;;;;;5071895;28;20198;-77
2023/04/10 01:30:37;;;;;;;9.23;7.47;;;;;;;;;;5065938;28;20176;-77
2023/04/10 01:33:04;;;;;;;8.60;6.87;;;;;;;;;;5070783;28;20181;-77
2023/04/10 01:35:30;;;;;;;9.57;7.53;;;;;;;;;;5072129;28;20175;-77
2023/04/10 01:37:56;;;;;;;9.97;7.77;;;;;;;;;;5077045;28;20183;-77
2023/04/10 01:40:24;;;;;;;8.93;7.13;;;;;;;;;;5070860;28;20204;-77
2023/04/10 01:42:54;;;;;;;7.73;6.50;;;;;;;;;;5072577;28;20176;-77
2023/04/10 01:45:20;;;;;;;9.03;7.20;;;;;;;;;;5071311;28;20172;-77
2023/04/10 01:47:46;;;;;;;8.70;6.40;;;;;;;;;;5072322;28;20175;-77
2023/04/10 01:50:12;;;;;;;9.10;7.20;;;;;;;;;;5085848;28;20281;-77
2023/04/10 01:52:38;;;;;;;8.07;6.53;;;;;;;;;;5072362;28;20195;-77
2023/04/10 01:55:05;;;;;;;9.87;7.13;;;;;;;;;;5071757;28;20282;-77
2023/04/10 01:57:30;;;;;;;8.83;6.70;;;;;;;;;;5071044;28;20182;-77
2023/04/10 01:59:56;;;;;;;7.37;6.53;;;;;;;;;;5071571;28;20238;-77
2023/04/10 02:02:21;;;;;;;9.17;6.67;;;;;;;;;;5071284;28;20186;-77
2023/04/10 02:04:50;;;;;;;10.93;7.33;;;;;;;;;;5073488;28;20201;-77
2023/04/10 02:07:35;;;;;;;7.83;6.90;;;;;;;;;;5068207;28;20187;-77
2023/04/10 02:10:00;;;;;;;8.43;6.50;;;;;;;;;;5070640;28;20193;-77
2023/04/10 02:12:30;;;;;;;7.43;6.40;;;;;;;;;;5087192;28;20175;-77
2023/04/10 02:14:58;;;;;;;9.87;6.90;;;;;;;;;;5071894;28;20180;-77
2023/04/10 02:17:26;;;;;;;8.20;6.27;;;;;;;;;;5072666;28;20189;-77
2023/04/10 02:19:52;;;;;;;8.00;6.43;;;;;;;;;;5070207;28;20208;-77
2023/04/10 02:22:17;;;;;;;7.63;6.83;;;;;;;;;;5069031;28;20235;-77
2023/04/10 02:24:42;;;;;;;7.83;6.27;;;;;;;;;;5068683;28;20186;-77
2023/04/10 02:27:07;;;;;;;8.60;6.80;;;;;;;;;;5071194;28;20240;-77
2023/04/10 02:29:33;;;;;;;7.83;5.93;;;;;;;;;;5072312;28;20173;-77
2023/04/10 02:31:58;;;;;;;9.00;6.97;;;;;;;;;;5069716;28;20170;-77
2023/04/10 02:34:23;;;;;;;9.20;6.23;;;;;;;;;;5065276;28;20256;-77
2023/04/10 02:36:48;;;;;;;7.20;5.93;;;;;;;;;;5071532;28;20209;-77
2023/04/10 02:39:14;;;;;;;8.70;6.37;;;;;;;;;;5070560;28;20175;-77
2023/04/10 02:41:39;;;;;;;7.57;5.93;;;;;;;;;;5073662;28;20237;-77
2023/04/10 02:44:05;;;;;;;8.07;5.97;;;;;;;;;;5084465;28;20252;-77
2023/04/10 02:46:30;;;;;;;7.33;6.20;;;;;;;;;;5070795;28;20182;-77
2023/04/10 02:48:56;;;;;;;8.10;6.77;;;;;;;;;;5070868;28;20175;-77
2023/04/10 02:51:21;;;;;;;8.27;6.67;;;;;;;;;;5073958;28;20195;-77
2023/04/10 02:53:46;;;;;;;8.70;6.87;;;;;;;;;;5070258;28;20228;-77
2023/04/10 02:56:12;;;;;;;8.33;5.93;;;;;;;;;;5067855;28;20185;-77
2023/04/10 02:58:38;;;;;;;8.83;6.80;;;;;;;;;;5067798;28;20185;-77
2023/04/10 03:01:05;;;;;;;9.03;5.97;;;;;;;;;;5069444;28;20201;-77
2023/04/10 03:03:31;;;;;;;6.90;6.03;;;;;;;;;;5066188;28;20174;-77
2023/04/10 03:05:57;;;;;;;6.87;5.63;;;;;;;;;;5070014;28;20193;-77
2023/04/10 03:08:22;;;;;;;7.40;5.77;;;;;;;;;;5069282;28;20174;-77
2023/04/10 03:10:47;;;;;;;8.67;6.77;;;;;;;;;;5071861;28;20262;-77
2023/04/10 03:13:13;;;;;;;6.90;6.03;;;;;;;;;;5070829;28;20181;-77
2023/04/10 03:15:38;;;;;;;7.57;6.23;;;;;;;;;;5067668;28;20200;-77
2023/04/10 03:18:04;;;;;;;8.40;5.97;;;;;;;;;;5070440;28;20173;-77
2023/04/10 03:20:31;;;;;;;8.00;6.40;;;;;;;;;;5068321;28;20255;-77
2023/04/10 03:22:56;;;;;;;7.47;5.73;;;;;;;;;;5070329;28;20270;-77
2023/04/10 03:25:21;;;;;;;6.83;5.87;;;;;;;;;;5069862;28;20276;-77
2023/04/10 03:27:47;;;;;;;8.97;6.53;;;;;;;;;;5070362;28;20181;-77
2023/04/10 03:30:12;;;;;;;7.93;6.90;;;;;;;;;;5063601;28;20192;-77
2023/04/10 03:32:38;;;;;;;7.83;5.90;;;;;;;;;;5069739;28;20236;-77
2023/04/10 03:35:03;;;;;;;7.80;6.17;;;;;;;;;;5068067;28;20240;-77
2023/04/10 03:37:28;;;;;;;7.40;6.00;;;;;;;;;;5071561;28;20184;-77
2023/04/10 03:39:54;;;;;;;8.03;6.30;;;;;;;;;;5070345;28;20210;-77
2023/04/10 03:42:19;;;;;;;8.97;6.23;;;;;;;;;;5069750;28;20230;-77
2023/04/10 03:44:44;;;;;;;8.10;7.03;;;;;;;;;;5067951;28;20169;-77
2023/04/10 03:47:09;;;;;;;8.00;6.47;;;;;;;;;;5070037;28;20179;-77
2023/04/10 03:49:35;;;;;;;7.23;6.40;;;;;;;;;;5068921;28;20169;-77
2023/04/10 03:52:00;;;;;;;8.77;6.97;;;;;;;;;;5072080;28;20363;-77
2023/04/10 03:54:25;;;;;;;7.47;6.13;;;;;;;;;;5070207;28;20225;-77
2023/04/10 03:56:50;;;;;;;7.67;5.63;;;;;;;;;;5068158;28;20178;-77
2023/04/10 03:59:15;;;;;;;7.60;5.37;;;;;;;;;;5069695;28;20186;-77
2023/04/10 04:01:41;;;;;;;8.13;6.77;;;;;;;;;;5071026;28;20209;-77
2023/04/10 04:04:06;;;;;;;8.77;6.43;;;;;;;;;;5068556;28;20214;-77
2023/04/10 04:06:31;;;;;;;7.27;6.00;;;;;;;;;;5064140;28;20197;-77
2023/04/10 04:08:56;;;;;;;7.27;5.73;;;;;;;;;;5069820;28;20182;-77
2023/04/10 04:11:22;;;;;;;7.07;5.57;;;;;;;;;;5067601;28;20187;-77
2023/04/10 04:13:47;;;;;;;6.87;5.37;;;;;;;;;;5069087;28;20264;-77
2023/04/10 04:16:12;;;;;;;7.40;6.07;;;;;;;;;;5069777;28;20179;-77
2023/04/10 04:18:37;;;;;;;8.10;6.00;;;;;;;;;;5068853;28;20184;-77
2023/04/10 04:21:02;;;;;;;23.67;13.90;;;;;;;;;;5069248;28;20195;-77
2023/04/10 04:23:28;;;;;;;9.73;6.03;;;;;;;;;;5066907;28;20224;-77
2023/04/10 04:25:54;;;;;;;7.70;6.70;;;;;;;;;;5069698;28;20180;-77
2023/04/10 04:28:20;;;;;;;8.30;7.23;;;;;;;;;;5068913;28;20215;-77
2023/04/10 04:30:45;;;;;;;8.03;6.23;;;;;;;;;;5069148;28;20203;-77
2023/04/10 04:33:10;;;;;;;7.17;6.23;;;;;;;;;;5068757;28;20181;-77
2023/04/10 04:35:35;;;;;;;5.60;5.00;;;;;;;;;;5069324;28;20181;-77
2023/04/10 04:38:01;;;;;;;6.60;5.80;;;;;;;;;;5069389;28;20198;-77
2023/04/10 04:40:26;;;;;;;6.53;5.83;;;;;;;;;;5068071;28;20213;-77
2023/04/10 04:42:51;;;;;;;7.43;6.37;;;;;;;;;;5068641;28;20235;-77
2023/04/10 04:45:16;;;;;;;6.70;5.67;;;;;;;;;;5063995;28;20178;-77
2023/04/10 04:47:41;;;;;;;8.27;6.57;;;;;;;;;;5074234;28;20205;-77
2023/04/10 04:50:07;;;;;;;7.67;6.13;;;;;;;;;;5072993;28;20207;-77
2023/04/10 04:52:34;;;;;;;8.67;5.87;;;;;;;;;;5072526;28;20197;-77
2023/04/10 04:54:59;;;;;;;6.47;5.67;;;;;;;;;;5074150;28;20225;-77
2023/04/10 04:57:24;;;;;;;7.33;5.60;;;;;;;;;;5072100;28;20179;-77
2023/04/10 04:59:49;;;;;;;9.53;6.50;;;;;;;;;;5072471;28;20201;-77
2023/04/10 05:02:15;;;;;;;7.87;6.00;;;;;;;;;;5072627;28;20157;-77
2023/04/10 05:04:40;;;;;;;5.90;5.33;;;;;;;;;;5073850;28;20182;-77
2023/04/10 05:07:06;;;;;;;6.53;5.37;;;;;;;;;;5072568;28;20174;-77
2023/04/10 05:09:31;;;;;;;7.57;6.30;;;;;;;;;;5071210;28;20174;-77
2023/04/10 05:11:56;;;;;;;9.37;6.10;;;;;;;;;;5072513;28;20177;-77
2023/04/10 05:14:21;;;;;;;9.70;6.20;;;;;;;;;;5073106;28;20184;-78
2023/04/10 05:16:46;;;;;;;7.60;5.83;;;;;;;;;;5073877;28;20205;-77
2023/04/10 05:19:12;;;;;;;7.93;5.93;;;;;;;;;;5071750;28;20200;-77
2023/04/10 05:21:37;;;;;;;7.83;5.83;;;;;;;;;;5062467;28;20226;-77
2023/04/10 05:24:02;;;;;;;8.20;6.43;;;;;;;;;;5072159;28;20335;-77
2023/04/10 05:26:27;;;;;;;7.00;5.53;;;;;;;;;;5071921;28;20260;-77
2023/04/10 05:28:52;;;;;;;7.33;6.20;;;;;;;;;;5088037;28;20180;-77
2023/04/10 05:31:18;;;;;;;6.37;5.63;;;;;;;;;;5072943;28;20320;-77
2023/04/10 05:33:43;;;;;;;8.00;6.40;;;;;;;;;;5072255;28;20188;-77
2023/04/10 05:36:09;;;;;;;7.53;6.00;;;;;;;;;;5070471;28;20238;-77
2023/04/10 05:38:34;;;;;;;7.63;6.30;;;;;;;;;;5069791;28;20180;-77
2023/04/10 05:41:00;;;;;;;6.80;5.83;;;;;;;;;;5074324;28;20193;-77
2023/04/10 05:43:25;;;;;;;8.50;7.07;;;;;;;;;;5072074;28;20176;-77
2023/04/10 05:45:50;;;;;;;9.30;6.13;;;;;;;;;;5072077;28;20178;-77
2023/04/10 05:48:16;;;;;;;8.60;6.47;;;;;;;;;;5068838;28;20201;-77
2023/04/10 05:50:41;;;;;;;7.50;5.97;;;;;;;;;;5067902;28;20466;-77
2023/04/10 05:53:13;;;;;;;6.17;5.37;;;;;;;;;;5073837;28;20224;-77
2023/04/10 05:55:38;;;;;;;8.80;5.67;;;;;;;;;;5072833;28;20192;-77
2023/04/10 05:58:03;;;;;;;10.27;9.17;;;;;;;;;;5070765;28;20177;-77
2023/04/10 06:00:28;;;;;;;7.67;5.83;;;;;;;;;;5064708;28;20287;-77
2023/04/10 06:02:54;;;;;;;7.43;5.60;;;;;;;;;;5069692;28;20166;-77
2023/04/10 06:05:19;;;;;;;6.87;5.40;;;;;;;;;;5070129;28;20178;-77
2023/04/10 06:07:45;;;;;;;6.90;5.50;;;;;;;;;;5069335;28;20196;-77
2023/04/10 06:10:10;;;;;;;6.83;5.43;;;;;;;;;;5071237;28;20212;-77
2023/04/10 06:12:35;;;;;;;7.53;5.77;;;;;;;;;;5072210;28;20166;-77
2023/04/10 06:15:00;;;;;;;6.03;5.03;;;;;;;;;;5069577;28;20203;-77
2023/04/10 06:17:27;;;;;;;7.60;5.47;;;;;;;;;;5069493;28;20176;-77
2023/04/10 06:19:52;;;;;;;6.37;5.43;;;;;;;;;;5074561;28;20204;-77
2023/04/10 06:22:17;;;;;;;6.40;5.20;;;;;;;;;;5070157;28;20201;-77
2023/04/10 06:24:42;;;;;;;5.80;5.20;;;;;;;;;;5079803;28;20175;-77
2023/04/10 06:27:07;;;;;;;5.73;5.13;;;;;;;;;;5069125;28;20209;-77
2023/04/10 06:29:33;;;;;;;6.73;5.53;;;;;;;;;;5065613;28;20179;-77
2023/04/10 06:31:58;;;;;;;6.57;5.10;;;;;;;;;;5068692;28;20186;-77
2023/04/10 06:34:23;;;;;;;5.83;5.10;;;;;;;;;;5073765;28;20197;-77
2023/04/10 06:36:48;;;;;;;6.03;5.30;;;;;;;;;;5064373;28;20227;-77
2023/04/10 06:39:14;;;;;;;5.70;4.83;;;;;;;;;;5066945;28;20178;-77
2023/04/10 06:41:39;;;;;;;5.50;4.60;;;;;;;;;;5068882;28;20201;-77
2023/04/10 06:44:04;;;;;;;5.87;4.97;;;;;;;;;;5068994;28;20175;-77
2023/04/10 06:46:29;;;;;;;6.60;5.40;;;;;;;;;;5071204;28;20209;-77
2023/04/10 06:48:55;;;;;;;6.10;5.10;;;;;;;;;;5072733;28;20173;-77
2023/04/10 06:51:20;;;;;;;7.07;4.33;;;;;;;;;;5069213;28;20211;-77
2023/04/10 06:53:45;;;;;;;8.10;5.23;;;;;;;;;;5070080;28;20309;-77
2023/04/10 06:56:10;;;;;;;7.47;4.63;;;;;;;;;;5064415;28;20170;-77
2023/04/10 06:58:36;;;;;;;8.10;5.47;;;;;;;;;;5071533;28;20197;-77
2023/04/10 07:01:03;;;;;;;5.13;4.47;;;;;;;;;;5070308;28;20221;-77
2023/04/10 07:03:28;;;;;;;5.07;4.43;;;;;;;;;;5069481;28;20170;-77
2023/04/10 07:05:53;;;;;;;5.17;4.50;;;;;;;;;;5069529;28;20254;-77
2023/04/10 07:08:19;;;;;;;5.23;4.30;;;;;;;;;;5069750;28;20191;-77
2023/04/10 07:10:44;;;;;;;4.87;4.47;;;;;;;;;;5068893;28;20176;-77
2023/04/10 07:13:09;;;;;;;8.83;6.23;;;;;;;;;;5069698;28;20192;-77
2023/04/10 07:15:35;;;;;;;5.30;4.63;;;;;;;;;;5069760;28;20232;-77
2023/04/10 07:18:00;;;;;;;4.50;4.03;;;;;;;;;;5071076;28;20220;-77
2023/04/10 07:20:26;;;;;;;4.87;4.10;;;;;;;;;;5070837;28;20211;-77
2023/04/10 07:22:52;;;;;;;4.90;4.40;;;;;;;;;;5070903;28;20199;-77
2023/04/10 07:25:17;;;;;;;5.83;5.07;;;;;;;;;;5068243;28;20183;-77
2023/04/10 07:27:42;;;;;;;5.70;5.10;;;;;;;;;;5067451;28;20266;-77
2023/04/10 07:30:07;;;;;;;5.77;4.33;;;;;;;;;;5070697;28;20280;-78
2023/04/10 07:32:33;;;;;;;4.90;4.00;;;;;;;;;;5068681;28;20182;-77
2023/04/10 07:34:59;;;;;;;6.40;5.50;;;;;;;;;;5069017;28;20265;-77
2023/04/10 07:37:24;;;;;;;4.17;3.63;;;;;;;;;;5070241;28;20218;-77
2023/04/10 07:39:50;;;;;;;5.60;4.40;;;;;;;;;;5065163;28;20207;-77
2023/04/10 07:42:15;;;;;;;4.17;3.60;;;;;;;;;;5067928;28;20189;-78
2023/04/10 07:44:41;;;;;;;4.20;3.63;;;;;;;;;;5070784;28;20166;-78
2023/04/10 07:47:06;;;;;;;4.30;3.90;;;;;;;;;;5067761;28;20169;-77
2023/04/10 07:49:31;;;;;;;3.90;3.50;;;;;;;;;;5065016;28;20223;-77
2023/04/10 07:51:56;;;;;;;3.90;3.50;;;;;;;;;;5084350;28;20241;-78
2023/04/10 07:54:22;;;;;;;3.50;3.10;;;;;;;;;;5071055;28;20278;-77
2023/04/10 07:56:47;;;;;;;3.90;3.50;;;;;;;;;;5070395;28;20213;-78
2023/04/10 07:59:12;;;;;;;4.80;3.40;;;;;;;;;;5069820;28;20208;-77
2023/04/10 08:01:37;;;;;;;3.57;3.27;;;;;;;;;;5068153;28;20235;-78
2023/04/10 08:04:03;;;;;;;3.27;2.80;;;;;;;;;;5068287;28;20195;-77
2023/04/10 08:06:28;;;;;;;3.63;2.97;;;;;;;;;;5068748;28;20189;-78
2023/04/10 08:08:53;;;;;;;3.60;3.30;;;;;;;;;;5069219;28;20212;-78
2023/04/10 08:11:28;;;;;;;4.37;3.60;;;;;;;;;;5069451;28;20180;-77
2023/04/10 08:13:55;;;;;;;3.70;3.30;;;;;;;;;;5066179;28;20184;-78
2023/04/10 08:16:24;;;;;;;3.23;2.93;;;;;;;;;;5069399;28;20185;-77
2023/04/10 08:18:51;;;;;;;6.67;3.10;;;;;;;;;;5069000;28;20173;-77
2023/04/10 08:21:16;;;;;;;3.13;2.83;;;;;;;;;;5072537;28;20205;-78
2023/04/10 08:23:41;;;;;;;4.07;3.33;;;;;;;;;;5072389;28;20226;-77
2023/04/10 08:26:06;;;;;;;3.93;3.23;;;;;;;;;;5083575;28;20177;-78
2023/04/10 08:28:32;;;;;;;3.10;2.80;;;;;;;;;;5068711;28;20199;-77
2023/04/10 08:30:57;;;;;;;3.57;3.27;;;;;;;;;;5068416;28;20193;-77
2023/04/10 08:33:24;;;;;;;4.00;3.70;;;;;;;;;;5073168;28;20189;-78
2023/04/10 08:35:49;;;;;;;3.47;3.17;;;;;;;;;;5073855;28;20272;-77
2023/04/10 08:38:14;;;;;;;3.50;3.20;;;;;;;;;;5070532;28;20278;-78
2023/04/10 08:40:39;;;;;;;4.20;3.50;;;;;;;;;;5068542;28;20342;-77
2023/04/10 08:43:05;;;;;;;3.40;3.10;;;;;;;;;;5071014;28;20202;-78
2023/04/10 08:45:30;;;;;;;2.90;2.70;;;;;;;;;;5065892;28;20260;-77
2023/04/10 08:47:56;;;;;;;3.43;3.13;;;;;;;;;;5071010;28;20177;-78
2023/04/10 08:50:22;;;;;;;3.17;2.83;;;;;;;;;;5072469;28;20189;-78
2023/04/10 08:52:50;;;;;;;3.27;2.97;;;;;;;;;;5070121;28;20250;-78
2023/04/10 08:55:15;;;;;;;3.40;3.10;;;;;;;;;;5071051;28;20323;-77
2023/04/10 08:57:41;;;;;;;3.23;2.93;;;;;;;;;;5069550;28;20259;-78
2023/04/10 09:00:07;;;;;;;3.37;3.07;;;;;;;;;;5073731;28;20216;-79
2023/04/10 09:02:32;;;;;;;3.53;3.23;;;;;;;;;;5072911;28;20267;-78
2023/04/10 09:04:59;;;;;;;3.47;3.10;;;;;;;;;;5073025;28;20259;-78
2023/04/10 09:07:25;;;;;;;2.80;2.60;;;;;;;;;;5069061;28;20359;-78
2023/04/10 09:09:50;;;;;;;2.77;2.57;;;;;;;;;;5072166;28;20176;-78
2023/04/10 09:12:15;;;;;;;4.37;3.97;;;;;;;;;;5070015;28;20166;-78
2023/04/10 09:14:41;;;;;;;3.93;3.27;;;;;;;;;;5069838;28;20193;-78
2023/04/10 09:17:12;;;;;;;3.57;3.27;;;;;;;;;;5072541;28;20193;-78
2023/04/10 09:19:37;;;;;;;5.17;4.67;;;;;;;;;;5071171;28;20172;-78
2023/04/10 09:22:02;;;;;;;3.87;3.47;;;;;;;;;;5075985;28;20173;-78
2023/04/10 09:24:28;;;;;;;3.73;3.30;;;;;;;;;;5062737;28;20208;-78
2023/04/10 09:26:53;;;;;;;3.60;3.20;;;;;;;;;;5072541;28;20172;-78
2023/04/10 09:29:19;;;;;;;3.70;3.40;;;;;;;;;;5070078;28;20179;-78
2023/04/10 09:31:44;;;;;;;2.93;2.73;;;;;;;;;;5070518;28;20174;-78
2023/04/10 09:34:16;;;;;;;3.40;3.10;;;;;;;;;;5072766;28;20177;-78
2023/04/10 09:36:58;;;;;;;4.40;3.37;;;;;;;;;;5071621;28;20169;-78
2023/04/10 09:39:39;;;;;;;3.33;3.03;;;;;;;;;;5071308;28;20227;-78
2023/04/10 09:42:05;;;;;;;3.00;2.73;;;;;;;;;;5068498;28;20181;-78
2023/04/10 09:44:31;;;;;;;2.73;2.53;;;;;;;;;;5071999;28;20299;-78
2023/04/10 09:46:57;;;;;;;3.10;2.80;;;;;;;;;;5069429;28;20173;-78
2023/04/10 09:49:22;;;;;;;3.00;2.70;;;;;;;;;;5070008;28;20188;-78
2023/04/10 09:51:48;;;;;;;3.07;2.77;;;;;;;;;;5067863;28;20207;-79
2023/04/10 09:54:14;;;;;;;2.80;2.60;;;;;;;;;;5069356;28;20240;-78
2023/04/10 09:56:39;;;;;;;3.73;2.90;;;;;;;;;;5066254;28;20183;-78
2023/04/10 09:59:06;;;;;;;4.27;3.40;;;;;;;;;;5064699;28;20179;-78
2023/04/10 10:01:33;;;;;;;3.73;3.30;;;;;;;;;;5083389;28;20199;-79
2023/04/10 10:04:02;;;;;;;3.20;2.90;;;;;;;;;;5066926;28;20236;-78
2023/04/10 10:06:31;;;;;;;2.93;2.60;;;;;;;;;;5083384;28;20249;-78
2023/04/10 10:09:00;;;;;;;3.07;2.60;;;;;;;;;;5069315;28;20168;-78
2023/04/10 10:11:26;;;;;;;3.27;2.67;;;;;;;;;;5084433;28;20192;-78
2023/04/10 10:13:55;;;;;;;3.27;2.90;;;;;;;;;;5070416;28;20254;-78
2023/04/10 10:16:28;;;;;;;4.93;3.70;;;;;;;;;;5070781;28;20186;-78
2023/04/10 10:19:10;;;;;;;2.93;2.73;;;;;;;;;;5066232;28;20267;-78
2023/04/10 10:21:35;;;;;;;2.70;2.50;;;;;;;;;;5066665;28;20212;-79
2023/04/10 10:24:01;;;;;;;3.37;3.00;;;;;;;;;;5069938;28;20181;-78
2023/04/10 10:26:28;;;;;;;3.00;2.80;;;;;;;;;;5068217;28;20267;-78
2023/04/10 10:28:55;;;;;;;3.00;2.70;;;;;;;;;;5071971;28;20245;-79
2023/04/10 10:31:21;;;;;;;2.83;2.53;;;;;;;;;;5070815;28;20181;-79
2023/04/10 10:33:46;;;;;;;4.20;2.80;;;;;;;;;;5065132;28;20177;-79
2023/04/10 10:36:13;;;;;;;3.20;2.90;;;;;;;;;;5072238;28;20215;-79
2023/04/10 10:38:43;;;;;;;3.20;2.90;;;;;;;;;;5070020;28;20259;-79
2023/04/10 10:41:22;;;;;;;3.17;2.87;;;;;;;;;;5066626;28;20247;-78
2023/04/10 10:43:58;;;;;;;3.03;2.80;;;;;;;;;;5069734;28;20193;-78
2023/04/10 10:46:31;;;;;;;2.73;2.53;;;;;;;;;;5065292;28;20168;-79
2023/04/10 10:48:56;;;;;;;2.70;2.50;;;;;;;;;;5066091;28;20167;-79
2023/04/10 10:51:22;;;;;;;2.77;2.57;;;;;;;;;;5084300;28;20194;-79
2023/04/10 10:53:47;;;;;;;3.00;2.67;;;;;;;;;;5068854;28;20236;-78
2023/04/10 10:56:18;;;;;;;2.60;2.40;;;;;;;;;;5067159;28;20196;-79
2023/04/10 10:58:46;;;;;;;2.60;2.40;;;;;;;;;;5063177;28;20210;-79
2023/04/10 11:01:12;;;;;;;2.73;2.47;;;;;;;;;;5070758;28;20214;-79
2023/04/10 11:03:38;;;;;;;2.60;2.30;;;;;;;;;;5071309;28;20171;-79
2023/04/10 11:06:07;;;;;;;2.73;2.53;;;;;;;;;;5069722;28;20177;-79
2023/04/10 11:08:32;;;;;;;2.83;2.63;;;;;;;;;;5066315;28;20187;-79
2023/04/10 11:11:01;;;;;;;2.60;2.40;;;;;;;;;;5070078;28;20183;-79
2023/04/10 11:13:26;;;;;;;2.50;2.30;;;;;;;;;;5069399;28;20193;-79
2023/04/10 11:15:52;;;;;;;2.60;2.40;;;;;;;;;;5069422;28;20167;-79
2023/04/10 11:18:19;;;;;;;2.17;1.97;;;;;;;;;;5069119;28;20175;-79
2023/04/10 11:21:04;;;;;;;2.60;2.40;;;;;;;;;;5068756;28;20265;-79
2023/04/10 11:23:29;;;;;;;2.40;2.20;;;;;;;;;;5067751;28;20176;-79
2023/04/10 11:25:54;;;;;;;2.10;1.90;;;;;;;;;;5069725;28;20183;-79
2023/04/10 11:28:33;;;;;;;2.10;1.90;;;;;;;;;;5069946;28;20172;-78
2023/04/10 11:31:18;;;;;;;3.40;2.23;;;;;;;;;;5068203;28;20181;-79
2023/04/10 11:33:44;;;;;;;2.43;2.23;;;;;;;;;;5069561;28;20328;-79
2023/04/10 11:36:12;;;;;;;2.10;1.90;;;;;;;;;;5069672;28;20268;-79
2023/04/10 11:38:37;;;;;;;2.40;2.20;;;;;;;;;;5068226;28;20186;-79
2023/04/10 11:41:04;;;;;;;2.30;2.10;;;;;;;;;;5068129;28;20201;-79
2023/04/10 11:43:30;;;;;;;2.30;2.10;;;;;;;;;;5068863;28;20193;-79
2023/04/10 11:46:13;;;;;;;2.23;2.03;;;;;;;;;;5065667;28;20272;-79
2023/04/10 11:48:38;;;;;;;2.47;2.07;;;;;;;;;;5062228;28;20245;-79
2023/04/10 11:51:08;;;;;;;2.37;2.17;;;;;;;;;;5070110;28;20267;-79
2023/04/10 11:53:33;;;;;;;2.30;2.10;;;;;;;;;;5062712;28;20170;-79
2023/04/10 11:55:58;;;;;;;1.70;1.60;;;;;;;;;;5064797;28;20182;-79
2023/04/10 11:58:24;;;;;;;2.17;1.97;;;;;;;;;;5067475;28;20183;-79
2023/04/10 12:00:56;;;;;;;1.67;1.57;;;;;;;;;;5069518;28;20334;-79
2023/04/10 12:03:35;;;;;;;2.13;1.90;;;;;;;;;;5083863;28;20276;-80
2023/04/10 12:06:00;;;;;;;2.20;2.00;;;;;;;;;;5068342;28;20258;-79
2023/04/10 12:08:49;;;;;;;2.00;1.80;;;;;;;;;;5068443;28;20248;-79
2023/04/10 12:11:24;;;;;;;2.10;1.90;;;;;;;;;;5066372;28;20194;-79
2023/04/10 12:13:53;;;;;;;2.00;1.90;;;;;;;;;;5065341;28;20315;-80
2023/04/10 12:16:19;;;;;;;2.33;2.13;;;;;;;;;;5066771;28;20190;-79
2023/04/10 12:18:44;;;;;;;2.80;1.83;;;;;;;;;;5066418;28;20184;-79
2023/04/10 12:21:10;;;;;;;1.93;1.83;;;;;;;;;;5064535;28;20242;-79
2023/04/10 12:23:37;;;;;;;2.43;2.23;;;;;;;;;;5070675;28;20174;-79
2023/04/10 12:26:08;;;;;;;1.80;1.70;;;;;;;;;;5069956;28;20167;-79
2023/04/10 12:28:35;;;;;;;2.10;1.93;;;;;;;;;;5069396;28;20187;-79
2023/04/10 12:31:02;;;;;;;1.80;1.70;;;;;;;;;;5084001;28;20176;-79
2023/04/10 12:33:27;;;;;;;1.80;1.70;;;;;;;;;;5067157;28;20238;-79
2023/04/10 12:35:53;;;;;;;2.37;1.70;;;;;;;;;;5064470;28;20224;-79
2023/04/10 12:38:34;;;;;;;1.70;1.60;;;;;;;;;;5067069;28;20211;-79
2023/04/10 12:41:00;;;;;;;2.73;1.70;;;;;;;;;;5067834;28;20254;-79
2023/04/10 12:43:39;;;;;;;1.93;1.73;;;;;;;;;;5070314;28;20180;-79
2023/04/10 12:46:05;;;;;;;1.50;1.40;;;;;;;;;;5061990;28;20194;-79
2023/04/10 12:48:30;;;;;;;1.60;1.50;;;;;;;;;;5064721;28;20197;-79
2023/04/10 12:50:55;;;;;;;1.93;1.70;;;;;;;;;;5071234;28;20177;-79
2023/04/10 12:53:21;;;;;;;1.70;1.60;;;;;;;;;;5091752;28;20227;-79
2023/04/10 12:55:58;;;;;;;1.73;1.63;;;;;;;;;;5067232;28;20267;-79
2023/04/10 12:58:26;;;;;;;1.90;1.80;;;;;;;;;;5073066;28;20184;-79
2023/04/10 13:00:52;;;;;;;1.60;1.50;;;;;;;;;;5060625;28;20207;-79
2023/04/10 13:03:17;;;;;;;2.00;1.83;;;;;;;;;;5065878;28;20187;-79
2023/04/10 13:05:43;;;;;;;2.10;1.90;;;;;;;;;;5073728;28;20179;-79
2023/04/10 13:08:08;;;;;;;2.20;2.00;;;;;;;;;;5070719;28;20173;-79
2023/04/10 13:10:36;;;;;;;2.20;1.83;;;;;;;;;;5071896;28;20189;-79
2023/04/10 13:13:02;;;;;;;1.93;1.80;;;;;;;;;;5072259;28;20184;-79
2023/04/10 13:15:27;;;;;;;1.80;1.70;;;;;;;;;;5070631;28;20180;-79
2023/04/10 13:17:52;;;;;;;2.10;1.87;;;;;;;;;;5070482;28;20203;-79
2023/04/10 13:20:18;;;;;;;1.80;1.70;;;;;;;;;;5066333;28;20286;-79
2023/04/10 13:22:44;;;;;;;4.17;2.27;;;;;;;;;;5063583;28;20500;-79
2023/04/10 13:25:09;;;;;;;2.00;1.87;;;;;;;;;;5068647;28;20174;-79
2023/04/10 13:27:34;;;;;;;1.70;1.60;;;;;;;;;;5067572;28;20277;-79
2023/04/10 13:30:00;;;;;;;1.83;1.73;;;;;;;;;;5069341;28;20451;-79
2023/04/10 13:32:25;;;;;;;2.47;1.70;;;;;;;;;;5070632;28;20200;-79
2023/04/10 13:34:50;;;;;;;1.63;1.53;;;;;;;;;;5070732;28;20201;-80
2023/04/10 13:37:15;;;;;;;1.60;1.50;;;;;;;;;;5070226;28;20182;-79
2023/04/10 13:39:42;;;;;;;1.50;1.40;;;;;;;;;;5068088;28;20174;-79
2023/04/10 13:42:08;;;;;;;1.43;1.33;;;;;;;;;;5069639;28;20307;-79
2023/04/10 13:44:34;;;;;;;1.70;1.60;;;;;;;;;;5067564;28;20258;-79
2023/04/10 13:46:59;;;;;;;1.93;1.57;;;;;;;;;;5066827;28;20182;-79
2023/04/10 13:49:24;;;;;;;1.50;1.40;;;;;;;;;;5070391;28;20206;-79
2023/04/10 13:51:50;;;;;;;1.77;1.60;;;;;;;;;;5072562;28;20198;-79
2023/04/10 13:54:18;;;;;;;1.40;1.30;;;;;;;;;;5066801;28;20233;-79
2023/04/10 13:56:45;;;;;;;1.50;1.40;;;;;;;;;;5070916;28;20203;-79
2023/04/10 13:59:10;;;;;;;1.67;1.57;;;;;;;;;;5067108;28;20184;-79
2023/04/10 14:01:35;;;;;;;2.30;1.60;;;;;;;;;;5068636;28;20200;-79
2023/04/10 14:04:01;;;;;;;1.50;1.40;;;;;;;;;;5067430;28;20249;-79
2023/04/10 14:06:26;;;;;;;1.40;1.30;;;;;;;;;;5069055;28;20175;-79
2023/04/10 14:08:51;;;;;;;1.77;1.53;;;;;;;;;;5067766;28;20317;-79
2023/04/10 14:11:17;;;;;;;1.60;1.50;;;;;;;;;;5069839;28;20184;-79
2023/04/10 14:13:42;;;;;;;1.40;1.30;;;;;;;;;;5069236;28;20176;-79
2023/04/10 14:16:07;;;;;;;1.80;1.60;;;;;;;;;;5067752;28;20181;-79
2023/04/10 14:18:32;;;;;;;1.37;1.27;;;;;;;;;;5066213;28;20186;-79
2023/04/10 14:20:58;;;;;;;2.37;1.30;;;;;;;;;;5062113;28;20204;-79
2023/04/10 14:23:23;;;;;;;1.40;1.30;;;;;;;;;;5066438;28;20177;-79
2023/04/10 14:25:49;;;;;;;2.13;1.23;;;;;;;;;;5068408;28;20187;-79
2023/04/10 14:28:17;;;;;;;1.60;1.47;;;;;;;;;;5069664;28;20179;-79
2023/04/10 14:30:47;;;;;;;1.40;1.30;;;;;;;;;;5069707;28;20177;-79
2023/04/10 14:33:12;;;;;;;1.33;1.23;;;;;;;;;;5069269;28;20178;-79
2023/04/10 14:35:37;;;;;;;1.80;1.17;;;;;;;;;;5069980;28;20173;-79
2023/04/10 14:38:03;;;;;;;1.00;1.00;;;;;;;;;;5068239;28;20181;-79
2023/04/10 14:40:28;;;;;;;2.13;1.93;;;;;;;;;;5068425;28;20197;-77